Terminal Aerodrome Forecast
Issued by NWS

Home | Current Version | Previous Version | Text Only | Print | Product List | Glossary On
Versions: 1 2 3 4 5 6 7 8 9 10 11 12 13 14 15 16 17 18 19 20
000
FTUS44 KLZK 240700 AAA
TAFLLQ
TAF AMD
KLLQ 240732Z 2408/2506 00000KT P6SM OVC006
      TEMPO 2410/2413 3SM BR
     FM241300 02005KT P6SM SCT250
     FM241800 04007KT P6SM FEW250=

USA.gov is the U.S. government's official web portal to all federal, state and local government web resources and services.